createdAt,value
2019-06-27T00:01:26.842Z,95377.11
2019-06-27T00:03:57.122Z,95376.61
2019-06-27T00:06:27.874Z,95375.33
2019-06-27T00:08:58.655Z,95378.62
2019-06-27T00:11:29.103Z,95382.55
2019-06-27T00:13:59.884Z,95383.72
2019-06-27T00:16:30.638Z,95381.05
2019-06-27T00:19:00.943Z,95376.38
2019-06-27T00:21:31.497Z,95376.38
2019-06-27T00:24:01.808Z,95376.77
2019-06-27T00:26:32.604Z,95378.43
2019-06-27T00:29:02.980Z,95378.36
2019-06-27T00:31:34.371Z,95378.36
2019-06-27T00:34:04.770Z,95379.34
2019-06-27T00:36:35.563Z,95382.89
2019-06-27T00:39:06.087Z,95379.95
2019-06-27T00:41:36.723Z,95382.03
2019-06-27T00:44:07.322Z,95382.03
2019-06-27T00:46:37.740Z,95375.13
2019-06-27T00:49:08.147Z,95379.19
2019-06-27T00:51:38.634Z,95375.59
2019-06-27T00:54:09.378Z,95379.88
2019-06-27T00:56:40.115Z,95379.23
2019-06-27T00:59:10.459Z,95379.23
2019-06-27T01:01:40.911Z,95377.85
2019-06-27T01:04:11.808Z,95379.33
2019-06-27T01:06:42.099Z,95379.62
2019-06-27T01:09:12.642Z,95378.77
2019-06-27T01:11:43.200Z,95378.77
2019-06-27T01:14:13.544Z,95373.67
2019-06-27T01:16:43.825Z,95373.67
2019-06-27T01:19:14.645Z,95368.86
2019-06-27T01:21:45.296Z,95369.42
2019-06-27T01:24:15.595Z,95364.71
2019-06-27T01:26:46.330Z,95356.02
2019-06-27T01:29:16.738Z,95356.02
2019-06-27T01:31:47.937Z,95352.11
2019-06-27T01:34:18.706Z,95357.39
2019-06-27T01:36:49.451Z,95352.61
2019-06-27T01:39:19.775Z,95348.45
2019-06-27T01:41:50.577Z,95347.61
2019-06-27T01:44:55.615Z,95351.03
2019-06-27T01:47:25.960Z,95351.03
2019-06-27T01:49:56.491Z,95354.69
2019-06-27T01:52:27.198Z,95347.69
2019-06-27T01:54:57.723Z,95349.59
2019-06-27T01:57:28.118Z,95349.59
2019-06-27T01:59:58.396Z,95344.09
2019-06-27T02:02:28.830Z,95343.88
2019-06-27T02:04:59.446Z,95343.10
2019-06-27T02:07:29.875Z,95343.10
2019-06-27T02:10:00.430Z,95343.41
2019-06-27T02:12:31.255Z,95341.52
2019-06-27T02:15:01.564Z,95341.52
2019-06-27T02:17:32.115Z,95345.39
2019-06-27T02:20:02.759Z,95334.03
2019-06-27T02:22:33.580Z,95334.03
2019-06-27T02:25:04.111Z,95336.20
2019-06-27T02:27:34.906Z,95334.92
2019-06-27T02:30:06.398Z,95334.92
2019-06-27T02:32:36.797Z,95328.05
2019-06-27T02:35:07.613Z,95335.75
2019-06-27T02:37:38.014Z,95330.46
2019-06-27T02:40:09.094Z,95327.60
2019-06-27T02:42:39.552Z,95324.67
2019-06-27T02:45:10.098Z,95324.67
2019-06-27T02:47:40.836Z,95326.39
2019-06-27T02:50:11.739Z,95326.39
2019-06-27T02:52:42.030Z,95331.65
2019-06-27T02:55:12.845Z,95331.65
2019-06-27T02:57:43.348Z,95330.09
2019-06-27T03:00:13.878Z,95335.30
2019-06-27T03:02:44.356Z,95334.20
2019-06-27T03:05:15.330Z,95333.67
2019-06-27T03:07:45.958Z,95334.84
2019-06-27T03:10:17.640Z,95344.95
2019-06-27T03:12:48.070Z,95333.88
2019-06-27T03:15:19.124Z,95336.73
2019-06-27T03:17:49.745Z,95338.55
2019-06-27T03:20:20.050Z,95330.42
2019-06-27T03:22:51.032Z,95330.42
2019-06-27T03:25:21.424Z,95338.44
2019-06-27T03:27:51.736Z,95343.42
2019-06-27T03:30:22.298Z,95332.20
2019-06-27T03:32:52.625Z,95332.20
2019-06-27T03:35:23.454Z,95338.02
2019-06-27T03:37:54.220Z,95339.08
2019-06-27T03:40:24.588Z,95339.08
2019-06-27T03:42:55.440Z,95335.98
2019-06-27T03:45:26.173Z,95338.11
2019-06-27T03:47:56.501Z,95338.11
2019-06-27T03:50:26.937Z,95345.75
2019-06-27T03:52:57.587Z,95340.45
2019-06-27T03:55:27.901Z,95332.58
2019-06-27T03:57:58.244Z,95332.58
2019-06-27T04:00:33.442Z,95337.88
2019-06-27T04:03:03.974Z,95338.80
2019-06-27T04:05:34.601Z,95339.73
2019-06-27T04:08:04.895Z,95335.19
2019-06-27T04:10:35.645Z,95332.80
2019-06-27T04:13:06.312Z,95328.66
2019-06-27T04:15:36.645Z,95328.36
2019-06-27T04:18:07.310Z,95331.26
2019-06-27T04:20:37.619Z,95321.55
2019-06-27T04:23:07.932Z,95317.86
2019-06-27T04:25:38.212Z,95320.86
2019-06-27T04:28:08.671Z,95318.47
2019-06-27T04:30:39.069Z,95319.45
2019-06-27T04:33:09.411Z,95316.84
2019-06-27T04:35:39.755Z,95319.95
2019-06-27T04:38:10.140Z,95313.58
2019-06-27T04:40:40.508Z,95321.44
2019-06-27T04:43:10.846Z,95319.92
2019-06-27T04:45:41.142Z,95319.05
2019-06-27T04:48:11.540Z,95315.22
2019-06-27T04:50:41.812Z,95313.19
2019-06-27T04:53:12.321Z,95318.02
2019-06-27T04:55:42.751Z,95313.98
2019-06-27T04:58:13.102Z,95317.70
2019-06-27T05:00:43.382Z,95095.53
2019-06-27T05:03:14.274Z,95322.13
2019-06-27T05:05:44.620Z,95323.46
2019-06-27T05:08:15.171Z,95317.79
2019-06-27T05:10:45.522Z,95315.24
2019-06-27T05:13:15.859Z,95318.58
2019-06-27T05:15:46.251Z,95317.59
2019-06-27T05:18:16.539Z,95318.12
2019-06-27T05:20:46.866Z,95314.16
2019-06-27T05:23:17.310Z,95320.42
2019-06-27T05:25:47.658Z,95314.69
2019-06-27T05:28:17.963Z,95314.22
2019-06-27T05:30:51.347Z,95317.16
2019-06-27T05:33:20.484Z,95313.89
2019-06-27T05:35:51.043Z,95316.01
2019-06-27T05:38:21.376Z,95310.06
2019-06-27T05:40:51.831Z,95310.66
2019-06-27T05:43:22.120Z,95309.65
2019-06-27T05:45:52.418Z,95312.15
2019-06-27T05:48:22.751Z,95316.20
2019-06-27T05:50:53.111Z,95311.36
2019-06-27T05:53:23.496Z,95307.33
2019-06-27T05:55:54.127Z,95307.75
2019-06-27T05:58:24.411Z,95305.88
2019-06-27T06:00:54.704Z,95301.09
2019-06-27T06:03:25.172Z,95302.38
2019-06-27T06:05:55.664Z,95302.94
2019-06-27T06:08:25.983Z,95293.08
2019-06-27T06:10:56.369Z,95290.13
2019-06-27T06:13:26.756Z,95286.80
2019-06-27T06:16:00.869Z,95294.28
2019-06-27T06:18:29.360Z,95292.05
2019-06-27T06:20:59.648Z,95284.91
2019-06-27T06:23:30.378Z,95289.20
2019-06-27T06:26:00.755Z,95277.85
2019-06-27T06:28:32.129Z,95281.95
2019-06-27T06:31:02.597Z,95284.69
2019-06-27T06:33:33.481Z,95278.21
2019-06-27T06:36:03.735Z,95277.78
2019-06-27T06:38:34.139Z,95276.83
2019-06-27T06:41:04.704Z,95279.65
2019-06-27T06:43:35.030Z,95272.44
2019-06-27T06:46:05.344Z,95268.80
2019-06-27T06:48:35.718Z,95266.63
2019-06-27T06:51:06.188Z,95262.64
2019-06-27T06:53:36.593Z,95262.14
2019-06-27T06:56:06.907Z,95264.86
2019-06-27T06:58:37.358Z,95271.88
2019-06-27T07:01:07.727Z,95259.78
2019-06-27T07:03:38.047Z,95256.40
2019-06-27T07:06:08.490Z,95252.23
2019-06-27T07:08:38.886Z,95254.86
2019-06-27T07:11:09.223Z,95253.67
2019-06-27T07:13:39.494Z,95250.25
2019-06-27T07:16:09.846Z,95246.77
2019-06-27T07:18:40.304Z,95248.34
2019-06-27T07:21:10.624Z,95245.89
2019-06-27T07:23:40.931Z,95242.59
2019-06-27T07:26:11.479Z,95244.19
2019-06-27T07:28:41.872Z,95241.56
2019-06-27T07:31:17.860Z,95236.09
2019-06-27T07:33:44.338Z,95242.20
2019-06-27T07:36:14.646Z,95230.77
2019-06-27T07:38:47.192Z,95237.69
2019-06-27T07:41:17.072Z,95231.13
2019-06-27T07:43:47.648Z,95231.53
2019-06-27T07:46:25.091Z,95225.00
2019-06-27T07:48:50.054Z,95223.48
2019-06-27T07:51:21.813Z,95220.63
2019-06-27T07:53:52.182Z,95212.18
2019-06-27T07:56:22.547Z,95215.71
2019-06-27T07:58:52.830Z,95213.38
2019-06-27T08:01:34.638Z,95210.97
2019-06-27T08:03:55.313Z,95206.37
2019-06-27T08:06:25.667Z,95197.67
2019-06-27T08:08:56.487Z,95196.80
2019-06-27T08:11:26.860Z,95201.44
2019-06-27T08:13:57.282Z,95195.02
2019-06-27T08:16:27.604Z,95191.33
2019-06-27T08:18:57.931Z,95188.30
2019-06-27T08:21:28.252Z,95184.51
2019-06-27T08:23:58.557Z,95178.02
2019-06-27T08:26:28.938Z,95184.06
2019-06-27T08:28:59.219Z,95180.91
2019-06-27T08:31:29.584Z,95171.41
2019-06-27T08:33:59.937Z,95174.36
2019-06-27T08:36:30.284Z,95169.64
2019-06-27T08:39:00.660Z,95165.97
2019-06-27T08:41:32.858Z,95159.05
2019-06-27T08:44:03.228Z,95153.66
2019-06-27T08:46:33.551Z,95154.67
2019-06-27T08:49:03.882Z,95151.63
2019-06-27T08:51:34.171Z,95142.89
2019-06-27T08:54:04.627Z,95148.67
2019-06-27T08:56:34.903Z,95148.19
2019-06-27T08:59:05.269Z,95144.98
2019-06-27T09:01:35.676Z,95147.75
2019-06-27T09:04:06.100Z,95140.20
2019-06-27T09:06:36.480Z,95141.85
2019-06-27T09:09:06.951Z,95140.06
2019-06-27T09:11:38.337Z,95127.72
2019-06-27T09:14:08.786Z,95126.12
2019-06-27T09:16:39.204Z,95133.02
2019-06-27T09:19:09.612Z,95122.07
2019-06-27T09:21:39.904Z,95124.06
2019-06-27T09:24:10.412Z,95123.34
2019-06-27T09:26:40.685Z,95118.06
2019-06-27T09:29:11.122Z,95113.41
2019-06-27T09:31:41.575Z,95116.16
2019-06-27T09:34:12.180Z,95114.11
2019-06-27T09:36:42.599Z,95115.23
2019-06-27T09:39:12.904Z,95109.90
2019-06-27T09:41:43.248Z,95101.80
2019-06-27T09:44:13.630Z,95099.52
2019-06-27T09:46:44.042Z,95097.28
2019-06-27T09:49:14.338Z,95094.16
2019-06-27T09:51:44.723Z,95090.12
2019-06-27T09:54:15.153Z,95093.88
2019-06-27T09:56:45.924Z,95094.05
2019-06-27T09:59:16.466Z,95089.12
2019-06-27T10:01:46.797Z,95083.77
2019-06-27T10:04:17.089Z,94899.18
2019-06-27T10:06:47.718Z,95070.56
2019-06-27T10:09:18.036Z,95068.34
2019-06-27T10:11:48.631Z,95071.44
2019-06-27T10:14:19.042Z,95063.33
2019-06-27T10:16:49.373Z,95062.22
2019-06-27T10:19:19.724Z,95060.88
2019-06-27T10:21:50.059Z,95062.27
2019-06-27T10:24:20.414Z,95052.64
2019-06-27T10:26:50.895Z,95059.37
2019-06-27T10:29:21.367Z,95043.78
2019-06-27T10:31:51.785Z,95040.81
2019-06-27T10:34:22.051Z,95034.47
2019-06-27T10:36:52.484Z,95039.45
2019-06-27T10:39:22.759Z,95035.92
2019-06-27T10:41:53.070Z,95026.81
2019-06-27T10:44:23.437Z,95018.79
2019-06-27T10:46:55.887Z,95020.69
2019-06-27T10:49:26.156Z,95020.60
2019-06-27T10:51:56.493Z,95016.31
2019-06-27T10:54:26.850Z,95013.25
2019-06-27T10:56:57.226Z,95011.28
2019-06-27T10:59:27.606Z,95006.74
2019-06-27T11:01:57.926Z,95003.95
2019-06-27T11:04:28.385Z,94997.77
2019-06-27T11:06:58.764Z,95000.66
2019-06-27T11:09:29.138Z,94996.78
2019-06-27T11:11:59.511Z,94994.45
2019-06-27T11:14:29.870Z,94988.31
2019-06-27T11:17:01.551Z,94974.27
2019-06-27T11:19:31.927Z,94973.80
2019-06-27T11:22:02.204Z,94973.65
2019-06-27T11:24:32.525Z,94976.01
2019-06-27T11:27:02.825Z,94971.19
2019-06-27T11:29:33.185Z,94968.08
2019-06-27T11:32:03.483Z,94962.22
2019-06-27T11:34:35.146Z,94962.52
2019-06-27T11:37:06.735Z,94963.47
2019-06-27T11:39:37.114Z,94951.38
2019-06-27T11:42:07.498Z,94955.65
2019-06-27T11:44:37.808Z,94956.69
2019-06-27T11:47:08.597Z,94958.88
2019-06-27T11:49:38.911Z,94945.98
2019-06-27T11:52:09.425Z,94946.29
2019-06-27T11:54:39.901Z,94943.03
2019-06-27T11:57:10.370Z,94939.14
2019-06-27T11:59:40.655Z,94936.38
2019-06-27T12:02:10.971Z,94922.48
2019-06-27T12:04:41.376Z,94920.92
2019-06-27T12:07:11.864Z,94924.09
2019-06-27T12:09:42.215Z,94916.39
2019-06-27T12:12:12.821Z,94910.23
2019-06-27T12:14:43.116Z,94909.42
2019-06-27T12:17:13.444Z,94906.41
2019-06-27T12:19:43.896Z,94904.72
2019-06-27T12:22:14.326Z,94909.80
2019-06-27T12:24:44.612Z,94909.98
2019-06-27T12:27:14.953Z,94906.61
2019-06-27T12:29:45.285Z,94902.67
2019-06-27T12:32:15.669Z,94900.25
2019-06-27T12:34:46.007Z,94892.53
2019-06-27T12:37:16.391Z,94903.51
2019-06-27T12:39:46.745Z,94894.22
2019-06-27T12:42:31.589Z,94888.81
2019-06-27T12:44:49.158Z,94885.38
2019-06-27T12:47:19.684Z,94882.06
2019-06-27T12:50:02.387Z,94879.27
2019-06-27T12:52:22.041Z,94881.08
2019-06-27T12:54:52.330Z,94879.66
2019-06-27T12:57:22.946Z,94872.56
2019-06-27T12:59:53.328Z,94868.59
2019-06-27T13:02:23.785Z,94867.64
2019-06-27T13:04:54.169Z,94858.49
2019-06-27T13:07:24.759Z,94859.38
2019-06-27T13:09:55.193Z,94851.16
2019-06-27T13:12:25.768Z,94857.63
2019-06-27T13:14:56.046Z,94849.14
2019-06-27T13:17:26.808Z,94854.06
2019-06-27T13:19:57.101Z,94843.72
2019-06-27T13:22:27.651Z,94838.95
2019-06-27T13:24:59.107Z,94835.80
2019-06-27T13:27:29.789Z,94829.06
2019-06-27T13:30:00.139Z,94831.80
2019-06-27T13:32:30.601Z,94818.20
2019-06-27T13:35:00.964Z,94642.34
2019-06-27T13:37:31.286Z,94817.67
2019-06-27T13:40:04.758Z,94816.66
2019-06-27T13:42:38.226Z,94812.34
2019-06-27T13:45:07.250Z,94807.14
2019-06-27T13:47:38.773Z,94803.53
2019-06-27T13:50:09.569Z,94801.16
2019-06-27T13:52:39.946Z,94799.64
2019-06-27T13:55:10.833Z,94805.39
2019-06-27T13:57:41.159Z,94794.77
2019-06-27T14:00:12.226Z,94790.24
2019-06-27T14:02:42.617Z,94785.45
2019-06-27T14:05:13.203Z,94777.34
2019-06-27T14:07:43.517Z,94777.05
2019-06-27T14:10:14.010Z,94775.73
2019-06-27T14:12:44.982Z,94776.76
2019-06-27T14:15:15.572Z,94771.28
2019-06-27T14:17:45.960Z,94769.52
2019-06-27T14:20:16.244Z,94758.56
2019-06-27T14:22:46.556Z,94761.11
2019-06-27T14:25:16.949Z,94756.19
2019-06-27T14:27:47.347Z,94749.02
2019-06-27T14:30:19.067Z,94740.60
2019-06-27T14:32:53.127Z,94732.64
2019-06-27T14:35:21.580Z,94735.70
2019-06-27T14:37:51.870Z,94734.97
2019-06-27T14:40:23.025Z,94731.27
2019-06-27T14:42:53.363Z,94725.03
2019-06-27T14:45:25.185Z,94716.33
2019-06-27T14:47:55.622Z,94721.48
2019-06-27T14:50:25.982Z,94720.66
2019-06-27T14:52:56.307Z,94719.77
2019-06-27T14:55:26.682Z,94705.66
2019-06-27T14:57:57.020Z,94708.77
2019-06-27T15:00:27.623Z,94706.84
2019-06-27T15:02:57.998Z,94702.02
2019-06-27T15:05:32.842Z,94695.77
2019-06-27T15:08:01.415Z,94687.25
2019-06-27T15:10:31.885Z,94688.47
2019-06-27T15:13:02.235Z,94694.89
2019-06-27T15:15:32.676Z,94696.14
2019-06-27T15:18:03.277Z,94692.45
2019-06-27T15:20:33.726Z,94680.40
2019-06-27T15:23:04.096Z,94680.77
2019-06-27T15:25:34.425Z,94679.58
2019-06-27T15:28:04.696Z,94674.87
2019-06-27T15:30:35.153Z,94679.64
2019-06-27T15:33:05.922Z,94669.84
2019-06-27T15:35:50.999Z,94675.13
2019-06-27T15:38:08.259Z,94664.47
2019-06-27T15:40:38.595Z,94673.33
2019-06-27T15:43:10.014Z,94670.24
2019-06-27T15:45:40.732Z,94669.52
2019-06-27T15:48:11.099Z,94670.64
2019-06-27T15:50:41.593Z,94669.80
2019-06-27T15:53:12.152Z,94660.20
2019-06-27T15:55:42.591Z,94658.77
2019-06-27T15:58:13.329Z,94658.53
2019-06-27T16:00:43.971Z,94658.09
2019-06-27T16:03:14.242Z,94650.64
2019-06-27T16:05:44.984Z,94645.81
2019-06-27T16:08:15.740Z,94652.33
2019-06-27T16:10:46.169Z,94664.96
2019-06-27T16:13:16.581Z,94661.66
2019-06-27T16:15:47.024Z,94652.19
2019-06-27T16:18:17.343Z,94660.05
2019-06-27T16:20:47.756Z,94664.08
2019-06-27T16:23:18.283Z,94651.63
2019-06-27T16:25:48.959Z,94651.43
2019-06-27T16:28:19.592Z,94650.77
2019-06-27T16:30:49.955Z,94644.03
2019-06-27T16:33:20.537Z,94654.19
2019-06-27T16:35:51.216Z,94643.36
2019-06-27T16:38:22.505Z,94649.83
2019-06-27T16:40:52.978Z,94659.70
2019-06-27T16:43:23.385Z,94651.66
2019-06-27T16:45:53.670Z,94652.83
2019-06-27T16:48:24.000Z,94658.03
2019-06-27T16:50:54.493Z,94657.23
2019-06-27T16:53:25.079Z,94654.91
2019-06-27T16:55:56.941Z,94658.87
2019-06-27T16:58:27.215Z,94652.56
2019-06-27T17:00:57.713Z,94651.73
2019-06-27T17:03:28.451Z,94651.11
2019-06-27T17:05:58.747Z,94651.44
2019-06-27T17:08:29.031Z,94660.11
2019-06-27T17:10:59.787Z,94652.29
2019-06-27T17:13:30.159Z,94648.44
2019-06-27T17:16:00.471Z,94644.28
2019-06-27T17:18:31.223Z,94648.42
2019-06-27T17:21:01.876Z,94644.09
2019-06-27T17:23:32.149Z,94643.23
2019-06-27T17:26:02.898Z,94638.19
2019-06-27T17:28:35.307Z,94644.52
2019-06-27T17:31:05.679Z,94636.31
2019-06-27T17:33:36.218Z,94644.48
2019-06-27T17:36:06.539Z,94639.92
2019-06-27T17:38:37.258Z,94641.22
2019-06-27T17:41:08.024Z,94643.01
2019-06-27T17:43:40.513Z,94642.87
2019-06-27T17:46:10.416Z,94639.73
2019-06-27T17:48:41.135Z,94637.30
2019-06-27T17:51:11.477Z,94647.98
2019-06-27T17:53:42.862Z,94648.38
2019-06-27T17:56:13.635Z,94650.01
2019-06-27T17:58:43.914Z,94643.14
2019-06-27T18:01:14.496Z,94644.11
2019-06-27T18:03:45.857Z,94648.89
2019-06-27T18:06:16.595Z,94653.80
2019-06-27T18:08:47.236Z,94654.27
2019-06-27T18:11:17.540Z,94670.69
2019-06-27T18:13:47.904Z,94671.66
2019-06-27T18:16:18.367Z,94670.88
2019-06-27T18:18:48.654Z,94670.47
2019-06-27T18:21:19.070Z,94670.20
2019-06-27T18:23:50.913Z,94669.68
2019-06-27T18:26:21.229Z,94664.59
2019-06-27T18:28:51.494Z,94662.16
2019-06-27T18:31:22.155Z,94663.94
2019-06-27T18:33:52.698Z,94664.27
2019-06-27T18:36:23.004Z,94678.80
2019-06-27T18:38:53.614Z,94681.25
2019-06-27T18:41:24.202Z,94681.08
2019-06-27T18:43:54.513Z,94689.71
2019-06-27T18:46:24.931Z,94688.08
2019-06-27T18:48:55.691Z,94686.30
2019-06-27T18:51:26.252Z,94691.06
2019-06-27T18:53:56.718Z,94698.62
2019-06-27T18:56:27.542Z,94701.61
2019-06-27T18:58:57.960Z,94706.09
2019-06-27T19:01:28.389Z,94715.94
2019-06-27T19:03:58.922Z,94717.84
2019-06-27T19:06:29.772Z,94710.61
2019-06-27T19:09:00.305Z,94714.13
2019-06-27T19:11:30.613Z,94716.92
2019-06-27T19:14:01.101Z,94725.91
2019-06-27T19:16:31.701Z,94721.98
2019-06-27T19:19:04.838Z,94724.78
2019-06-27T19:21:51.300Z,94734.78
2019-06-27T19:24:49.944Z,94737.52
2019-06-27T19:27:20.339Z,94741.52
2019-06-27T19:29:50.640Z,94747.88
2019-06-27T19:32:21.193Z,94743.46
2019-06-27T19:34:51.676Z,94749.64
2019-06-27T19:37:22.288Z,94746.38
2019-06-27T19:39:52.594Z,94749.13
2019-06-27T19:42:22.992Z,94748.53
2019-06-27T19:44:53.406Z,94744.27
2019-06-27T19:47:23.696Z,94744.41
2019-06-27T19:49:54.031Z,94753.11
2019-06-27T19:52:24.775Z,94749.87
2019-06-27T19:54:55.333Z,94756.09
2019-06-27T19:57:26.418Z,94759.00
2019-06-27T19:59:57.203Z,94753.38
2019-06-27T20:02:28.917Z,94742.41
2019-06-27T20:04:59.244Z,94740.63
2019-06-27T20:07:29.916Z,94743.95
2019-06-27T20:10:00.193Z,94737.97
2019-06-27T20:12:30.605Z,94740.44
2019-06-27T20:15:01.902Z,94746.72
2019-06-27T20:17:32.288Z,94752.86
2019-06-27T20:20:03.191Z,94750.92
2019-06-27T20:22:33.872Z,94757.03
2019-06-27T20:25:05.432Z,94756.58
2019-06-27T20:27:36.231Z,94750.70
2019-06-27T20:30:07.312Z,94758.12
2019-06-27T20:32:37.652Z,94749.92
2019-06-27T20:35:08.947Z,94747.02
2019-06-27T20:37:39.847Z,94741.30
2019-06-27T20:40:10.483Z,94739.92
2019-06-27T20:42:41.694Z,94738.90
2019-06-27T20:45:12.414Z,94738.90
2019-06-27T20:47:43.021Z,94731.97
2019-06-27T20:50:14.081Z,94728.25
2019-06-27T20:52:44.366Z,94728.17
2019-06-27T20:55:16.081Z,94733.91
2019-06-27T20:57:46.727Z,94740.39
2019-06-27T21:00:17.396Z,94742.24
2019-06-27T21:02:47.803Z,94756.41
2019-06-27T21:05:18.397Z,94760.50
2019-06-27T21:07:48.725Z,94762.61
2019-06-27T21:10:19.454Z,94763.55
2019-06-27T21:12:49.904Z,94763.02
2019-06-27T21:15:20.362Z,94762.00
2019-06-27T21:17:51.124Z,94769.27
2019-06-27T21:20:21.860Z,94788.30
2019-06-27T21:22:52.243Z,94785.64
2019-06-27T21:25:23.296Z,94779.75
2019-06-27T21:27:53.568Z,94778.28
2019-06-27T21:30:24.215Z,94780.92
2019-06-27T21:32:54.809Z,94779.98
2019-06-27T21:35:25.288Z,94787.34
2019-06-27T21:37:55.721Z,94786.87
2019-06-27T21:40:26.392Z,94787.57
2019-06-27T21:42:57.033Z,94764.58
2019-06-27T21:45:27.361Z,94768.47
2019-06-27T21:47:57.664Z,94768.02
2019-06-27T21:50:28.030Z,94773.42
2019-06-27T21:52:58.668Z,94772.09
2019-06-27T21:55:29.236Z,94778.89
2019-06-27T21:58:00.248Z,94772.08
2019-06-27T22:00:33.442Z,94782.51
2019-06-27T22:03:05.735Z,94789.62
2019-06-27T22:05:36.049Z,94780.53
2019-06-27T22:08:06.815Z,94778.27
2019-06-27T22:10:37.645Z,94780.37
2019-06-27T22:13:07.942Z,94784.16
2019-06-27T22:15:38.260Z,94783.10
2019-06-27T22:18:08.687Z,94775.77
2019-06-27T22:20:39.838Z,94774.81
2019-06-27T22:23:10.672Z,94779.67
2019-06-27T22:25:41.269Z,94771.77
2019-06-27T22:28:12.156Z,94768.66
2019-06-27T22:30:42.790Z,94773.09
2019-06-27T22:33:13.222Z,94755.66
2019-06-27T22:35:43.730Z,94760.38
2019-06-27T22:38:32.069Z,94752.71
2019-06-27T22:41:19.642Z,94743.47
2019-06-27T22:44:07.283Z,94738.30
2019-06-27T22:46:55.501Z,94734.02
2019-06-27T22:49:24.911Z,94726.77
2019-06-27T22:52:14.150Z,94717.83
2019-06-27T22:54:46.541Z,94719.55
2019-06-27T22:57:17.028Z,94716.14
2019-06-27T22:59:47.312Z,94705.52
2019-06-27T23:02:17.994Z,94706.75
2019-06-27T23:04:48.701Z,94698.44
2019-06-27T23:07:19.000Z,94693.47
2019-06-27T23:09:56.809Z,94689.14
2019-06-27T23:12:21.610Z,94680.44
2019-06-27T23:14:51.926Z,94678.41
2019-06-27T23:17:22.437Z,94680.53
2019-06-27T23:19:53.201Z,94666.66
2019-06-27T23:22:23.481Z,94670.78
2019-06-27T23:24:54.220Z,94664.65
2019-06-27T23:27:24.492Z,94665.54
2019-06-27T23:29:55.208Z,94665.52
2019-06-27T23:32:26.000Z,94660.36
2019-06-27T23:34:56.345Z,94662.33
2019-06-27T23:37:26.772Z,94671.09
2019-06-27T23:40:12.796Z,94668.53
2019-06-27T23:42:29.571Z,94673.63
2019-06-27T23:44:59.936Z,94658.40
2019-06-27T23:47:30.518Z,94664.05
2019-06-27T23:50:00.815Z,94654.78
2019-06-27T23:52:31.256Z,94645.16
2019-06-27T23:55:01.953Z,94637.48
2019-06-27T23:57:33.396Z,94633.86
